Date,TemperatureHighF,TemperatureAvgF,TemperatureLowF,DewpointHighF,DewpointAvgF,DewpointLowF,HumidityHigh,HumidityAvg,HumidityLow,PressureMaxIn,PressureMinIn,WindSpeedMaxMPH,WindSpeedAvgMPH,GustSpeedMaxMPH,PrecipitationSumIn
2013-10-1,82.0,69.2,58.1,69.0,62.4,55.2,90,80,59,30.06,29.97,13,1,13,0.00
2013-10-2,82.8,70.7,62.5,73.6,66.6,59.5,90,87,70,30.08,30.00,11,1,11,0.07
2013-10-3,85.3,74.0,68.4,70.8,67.7,65.4,90,82,57,30.06,29.94,10,0,10,0.03
2013-10-4,86.9,73.3,65.2,72.1,67.0,62.1,90,82,59,30.05,29.96,19,1,19,0.51
2013-10-5,72.5,70.0,67.9,69.3,66.9,64.9,90,90,90,30.01,29.89,13,0,13,3.27
2013-10-6,70.3,63.3,54.9,67.2,59.8,47.5,90,88,76,29.91,29.76,12,2,18,1.25
2013-10-7,65.8,55.2,46.9,49.5,46.6,43.4,90,74,51,30.14,29.87,15,2,15,0.00
2013-10-8,69.7,55.3,42.7,50.5,46.0,40.0,90,74,45,30.23,30.12,14,1,15,0.01
2013-10-9,76.7,58.9,44.0,59.0,50.8,41.3,90,76,51,30.19,30.09,7,0,7,0.00
2013-10-10,76.0,60.5,47.4,57.4,51.4,44.6,90,75,46,30.16,30.04,9,0,12,0.00
2013-10-11,78.5,60.7,48.0,57.7,51.4,45.1,90,75,40,30.08,29.98,6,0,6,0.00
2013-10-12,81.2,63.3,50.2,62.8,55.5,47.3,90,78,45,30.09,30.00,10,0,10,0.00
2013-10-13,77.0,66.0,54.0,64.2,58.1,48.8,90,77,56,30.26,30.08,10,1,10,0.08
2013-10-14,74.0,60.2,49.7,55.8,49.7,42.9,89,70,50,30.29,30.12,9,0,9,0.00
2013-10-15,72.5,62.8,53.9,63.4,58.0,51.0,90,85,71,30.13,29.91,12,1,12,0.00
2013-10-16,65.7,61.9,50.1,61.7,56.6,47.0,90,83,71,29.95,29.87,9,1,9,0.02
2013-10-17,62.6,51.9,44.4,51.6,46.2,41.4,90,81,60,29.99,29.90,16,1,16,0.04
2013-10-18,68.0,53.2,41.2,52.9,45.3,38.5,90,77,49,30.05,29.93,15,1,15,0.01
2013-10-19,54.6,48.7,39.1,48.7,44.0,36.1,90,84,61,30.02,29.82,14,1,14,0.20
2013-10-20,64.3,49.1,38.9,46.6,40.7,35.9,90,75,48,30.07,29.98,16,2,16,0.01
2013-10-21,69.2,53.9,40.4,48.7,43.4,36.8,90,70,42,30.02,29.89,15,2,16,0.00
2013-10-22,58.7,48.7,35.2,46.4,37.1,30.5,90,66,40,30.05,29.80,15,1,15,0.01
2013-10-23,51.6,45.3,39.0,43.9,36.5,31.7,84,72,52,30.08,29.76,23,3,23,0.01
2013-10-24,46.9,40.8,32.3,36.5,32.4,25.9,83,72,56,30.32,30.07,18,1,18,0.01
2013-10-25,51.4,37.5,25.9,32.4,27.2,22.5,89,69,40,30.49,30.32,10,0,10,0.00
2013-10-26,58.4,42.6,29.4,39.3,32.6,24.9,84,69,47,30.31,29.96,21,3,21,0.00
2013-10-27,63.1,45.8,32.8,41.4,35.3,29.9,90,70,36,30.11,30.02,10,1,10,0.00
2013-10-28,66.6,49.0,38.2,44.2,38.9,34.3,89,71,38,30.26,30.07,5,0,5,0.00
2013-10-29,56.8,47.8,37.1,52.6,44.5,34.4,90,88,82,30.33,30.14,4,0,4,0.08
2013-10-30,70.5,62.2,55.1,65.7,58.9,52.2,90,89,84,30.15,29.99,11,0,11,1.14
2013-10-31,67.3,64.5,58.9,64.3,59.6,54.1,90,84,76,29.99,29.39,35,5,42,0.46